createdAt,value
2022-10-21T00:00:16.071Z,16.05
2022-10-21T00:02:45.526Z,15.98
2022-10-21T00:05:15.162Z,16.07
2022-10-21T00:07:44.322Z,16.00
2022-10-21T00:10:13.752Z,16.01
2022-10-21T00:12:42.870Z,16.05
2022-10-21T00:15:13.845Z,16.04
2022-10-21T00:17:44.498Z,16.04
2022-10-21T00:20:14.418Z,16.01
2022-10-21T00:22:43.633Z,16.06
2022-10-21T00:25:12.801Z,16.04
2022-10-21T00:27:42.065Z,16.05
2022-10-21T00:30:15.067Z,16.07
2022-10-21T00:32:44.259Z,16.08
2022-10-21T00:35:13.378Z,16.07
2022-10-21T00:37:42.653Z,16.04
2022-10-21T00:40:12.539Z,15.98
2022-10-21T00:42:45.750Z,16.10
2022-10-21T00:45:23.980Z,15.98
2022-10-21T00:48:01.053Z,16.15
2022-10-21T00:50:40.323Z,16.14
2022-10-21T00:53:16.551Z,16.14
2022-10-21T00:55:51.842Z,16.04
2022-10-21T00:58:26.765Z,16.03
2022-10-21T01:01:00.730Z,15.98
2022-10-21T01:03:32.889Z,15.99
2022-10-21T01:06:07.346Z,16.00
2022-10-21T01:08:37.571Z,15.98
2022-10-21T01:11:12.980Z,15.97
2022-10-21T01:14:00.472Z,16.02
2022-10-21T01:16:45.788Z,16.04
2022-10-21T01:20:03.502Z,16.00
2022-10-21T01:23:10.373Z,15.92
2022-10-21T01:26:27.150Z,15.97
2022-10-21T01:29:17.742Z,16.00
2022-10-21T01:31:56.874Z,15.87
2022-10-21T01:34:30.979Z,15.79
2022-10-21T01:37:11.005Z,15.87
2022-10-21T01:39:46.619Z,15.91
2022-10-21T01:42:26.081Z,15.81
2022-10-21T01:45:02.523Z,15.92
2022-10-21T01:47:39.083Z,15.95
2022-10-21T01:50:14.072Z,15.93
2022-10-21T01:52:48.899Z,15.91
2022-10-21T01:55:24.311Z,15.91
2022-10-21T01:57:58.311Z,15.96
2022-10-21T02:00:27.604Z,15.98
2022-10-21T02:03:06.075Z,15.97
2022-10-21T02:05:36.690Z,15.92
2022-10-21T02:08:06.685Z,15.94
2022-10-21T02:10:41.189Z,15.95
2022-10-21T02:13:15.135Z,16.03
2022-10-21T02:15:45.576Z,15.97
2022-10-21T02:18:23.673Z,15.88
2022-10-21T02:20:57.380Z,15.99
2022-10-21T02:23:41.142Z,15.94
2022-10-21T02:26:10.971Z,15.89
2022-10-21T02:31:53.939Z,15.91
2022-10-21T02:34:36.530Z,15.94
2022-10-21T02:37:15.235Z,15.86
2022-10-21T02:39:51.331Z,15.86
2022-10-21T02:42:26.329Z,15.87
2022-10-21T02:44:55.677Z,15.83
2022-10-21T02:47:27.513Z,15.87
2022-10-21T02:49:58.128Z,15.93
2022-10-21T02:52:27.493Z,15.88
2022-10-21T02:54:56.648Z,15.95
2022-10-21T02:57:25.895Z,15.88
2022-10-21T02:59:55.086Z,15.87
2022-10-21T03:02:24.229Z,15.87
2022-10-21T03:04:53.556Z,15.72
2022-10-21T03:07:24.116Z,15.77
2022-10-21T03:09:53.292Z,15.70
2022-10-21T03:12:22.688Z,15.50
2022-10-21T03:14:51.814Z,15.58
2022-10-21T03:17:24.344Z,15.47
2022-10-21T03:19:54.618Z,15.34
2022-10-21T03:22:25.152Z,15.47
2022-10-21T03:24:54.286Z,15.45
2022-10-21T03:27:23.507Z,15.55
2022-10-21T03:29:52.854Z,15.38
2022-10-21T03:32:22.003Z,15.13
2022-10-21T03:34:51.221Z,15.44
2022-10-21T03:37:20.333Z,15.37
2022-10-21T03:39:50.977Z,15.47
2022-10-21T03:42:20.602Z,15.46
2022-10-21T03:44:49.762Z,15.22
2022-10-21T03:47:18.857Z,15.38
2022-10-21T03:49:48.020Z,15.43
2022-10-21T03:52:17.175Z,15.31
2022-10-21T03:54:46.326Z,15.37
2022-10-21T03:57:16.884Z,15.33
2022-10-21T03:59:46.098Z,15.27
2022-10-21T04:02:15.264Z,15.28
2022-10-21T04:04:44.374Z,15.30
2022-10-21T04:07:13.490Z,15.24
2022-10-21T04:09:42.730Z,15.26
2022-10-21T04:12:12.723Z,15.20
2022-10-21T04:14:43.582Z,15.21
2022-10-21T04:17:14.043Z,15.28
2022-10-21T04:19:43.378Z,15.17
2022-10-21T04:22:12.778Z,15.16
2022-10-21T04:24:41.948Z,15.20
2022-10-21T04:27:11.056Z,15.21
2022-10-21T04:29:40.294Z,15.28
2022-10-21T04:32:11.156Z,15.21
2022-10-21T04:34:40.327Z,15.17
2022-10-21T04:37:09.565Z,15.25
2022-10-21T04:39:38.779Z,15.15
2022-10-21T04:42:07.935Z,15.35
2022-10-21T04:44:39.751Z,15.39
2022-10-21T04:47:10.368Z,15.28
2022-10-21T04:49:39.521Z,15.39
2022-10-21T04:52:08.683Z,15.44
2022-10-21T04:54:37.805Z,15.45
2022-10-21T04:57:07.334Z,15.51
2022-10-21T04:59:36.531Z,15.51
2022-10-21T05:02:05.917Z,15.52
2022-10-21T05:04:36.489Z,15.41
2022-10-21T05:07:05.617Z,15.52
2022-10-21T05:09:34.808Z,15.44
2022-10-21T05:12:04.569Z,15.42
2022-10-21T05:14:33.852Z,15.33
2022-10-21T05:17:03.395Z,15.38
2022-10-21T05:19:32.703Z,15.34
2022-10-21T05:22:03.305Z,15.28
2022-10-21T05:24:32.441Z,15.28
2022-10-21T05:27:01.569Z,15.26
2022-10-21T05:29:30.913Z,15.31
2022-10-21T05:32:00.165Z,15.28
2022-10-21T05:34:29.365Z,15.46
2022-10-21T05:36:58.823Z,15.47
2022-10-21T05:39:29.788Z,15.41
2022-10-21T05:41:58.919Z,15.45
2022-10-21T05:44:28.081Z,15.37
2022-10-21T05:46:57.303Z,15.37
2022-10-21T05:49:26.439Z,15.43
2022-10-21T05:51:55.609Z,15.45
2022-10-21T05:54:24.822Z,15.38
2022-10-21T05:56:57.369Z,15.48
2022-10-21T05:59:27.010Z,15.51
2022-10-21T06:01:56.181Z,15.54
2022-10-21T06:04:25.453Z,15.43
2022-10-21T06:06:54.710Z,15.43
2022-10-21T06:09:23.855Z,15.39
2022-10-21T06:11:54.486Z,15.40
2022-10-21T06:14:23.626Z,15.24
2022-10-21T06:16:52.875Z,15.36
2022-10-21T06:19:22.111Z,15.36
2022-10-21T06:21:51.360Z,15.36
2022-10-21T06:24:20.532Z,15.29
2022-10-21T06:26:52.036Z,15.17
2022-10-21T06:29:23.644Z,15.18
2022-10-21T06:31:53.046Z,15.28
2022-10-21T06:34:22.455Z,15.41
2022-10-21T06:36:51.641Z,15.25
2022-10-21T06:39:20.787Z,15.35
2022-10-21T06:41:49.967Z,15.42
2022-10-21T06:44:40.444Z,15.44
2022-10-21T06:47:09.910Z,15.46
2022-10-21T06:49:39.104Z,15.52
2022-10-21T06:52:08.293Z,15.37
2022-10-21T06:54:37.487Z,15.59
2022-10-21T06:57:06.783Z,15.68
2022-10-21T06:59:35.921Z,15.63
2022-10-21T07:02:07.214Z,15.64
2022-10-21T07:04:36.351Z,15.62
2022-10-21T07:07:05.569Z,15.61
2022-10-21T07:09:35.150Z,15.58
2022-10-21T07:12:04.724Z,15.63
2022-10-21T07:14:33.887Z,15.69
2022-10-21T07:17:03.056Z,15.63
2022-10-21T07:19:33.974Z,15.65
2022-10-21T07:22:03.255Z,15.65
2022-10-21T07:24:32.458Z,15.70
2022-10-21T07:27:01.792Z,15.76
2022-10-21T07:29:30.970Z,15.56
2022-10-21T07:32:00.386Z,15.76
2022-10-21T07:34:29.568Z,15.57
2022-10-21T07:37:00.061Z,15.61
2022-10-21T07:39:29.883Z,15.73
2022-10-21T07:41:59.772Z,15.73
2022-10-21T07:44:29.070Z,15.75
2022-10-21T07:46:58.268Z,15.76
2022-10-21T07:49:27.360Z,15.80
2022-10-21T07:51:57.004Z,15.61
2022-10-21T07:54:27.658Z,15.77
2022-10-21T07:56:56.890Z,15.84
2022-10-21T07:59:26.040Z,15.72
2022-10-21T08:01:55.249Z,15.85
2022-10-21T08:04:29.855Z,15.77
2022-10-21T08:06:59.999Z,15.76
2022-10-21T08:09:30.875Z,15.90
2022-10-21T08:12:00.113Z,15.96
2022-10-21T08:14:29.291Z,15.93
2022-10-21T08:16:58.364Z,15.95
2022-10-21T08:19:29.786Z,15.89
2022-10-21T08:22:00.950Z,15.95
2022-10-21T08:24:31.532Z,15.97
2022-10-21T08:27:00.879Z,15.88
2022-10-21T08:29:30.017Z,15.89
2022-10-21T08:31:59.152Z,15.93
2022-10-21T08:34:28.387Z,15.87
2022-10-21T08:36:57.712Z,16.03
2022-10-21T08:39:26.911Z,15.94
2022-10-21T08:43:35.934Z,15.86
2022-10-21T08:46:10.816Z,15.86
2022-10-21T08:48:46.580Z,15.89
2022-10-21T08:51:29.323Z,15.83
2022-10-21T08:54:04.996Z,15.88
2022-10-21T08:56:34.340Z,15.91
2022-10-21T08:59:04.944Z,15.95
2022-10-21T09:01:41.564Z,15.89
2022-10-21T09:04:18.416Z,15.95
2022-10-21T09:06:54.951Z,15.91
2022-10-21T09:09:31.949Z,15.93
2022-10-21T09:12:09.771Z,16.01
2022-10-21T09:15:19.012Z,16.13
2022-10-21T09:18:19.434Z,16.10
2022-10-21T09:21:03.183Z,16.18
2022-10-21T09:24:02.179Z,16.05
2022-10-21T09:26:41.925Z,16.14
2022-10-21T09:29:29.761Z,16.08
2022-10-21T09:32:15.202Z,16.13
2022-10-21T09:34:54.388Z,16.15
2022-10-21T09:37:35.624Z,16.19
2022-10-21T09:40:16.290Z,16.19
2022-10-21T09:42:48.080Z,16.22
2022-10-21T09:45:27.281Z,16.41
2022-10-21T09:48:01.591Z,16.45
2022-10-21T09:53:13.034Z,16.61
2022-10-21T09:55:42.723Z,16.59
2022-10-21T09:58:26.800Z,16.63
2022-10-21T10:00:57.254Z,16.48
2022-10-21T10:03:39.191Z,16.48
2022-10-21T10:06:08.461Z,16.56
2022-10-21T10:08:41.612Z,16.67
2022-10-21T10:11:19.183Z,16.68
2022-10-21T10:13:50.844Z,16.86
2022-10-21T10:16:28.876Z,17.04
2022-10-21T10:19:18.558Z,17.19
2022-10-21T10:22:10.181Z,17.33
2022-10-21T10:24:41.559Z,17.37
2022-10-21T10:27:20.771Z,17.43
2022-10-21T10:29:57.654Z,17.63
2022-10-21T10:32:33.231Z,17.40
2022-10-21T10:35:09.018Z,17.50
2022-10-21T10:37:39.523Z,17.41
2022-10-21T10:40:10.947Z,17.40
2022-10-21T10:42:46.822Z,17.33
2022-10-21T10:45:20.574Z,17.38
2022-10-21T10:47:53.917Z,17.36
2022-10-21T10:50:50.123Z,17.23
2022-10-21T10:53:33.108Z,17.35
2022-10-21T10:56:24.161Z,17.60
2022-10-21T10:59:15.958Z,17.80
2022-10-21T11:01:55.016Z,18.18
2022-10-21T11:04:33.885Z,18.82
2022-10-21T11:07:15.995Z,19.59
2022-10-21T11:09:45.875Z,20.08
2022-10-21T11:12:22.167Z,20.45
2022-10-21T11:14:56.596Z,20.46
2022-10-21T11:17:33.951Z,20.06
2022-10-21T11:20:12.839Z,20.23
2022-10-21T11:22:59.437Z,20.60
2022-10-21T11:25:35.969Z,21.22
2022-10-21T11:28:22.284Z,21.65
2022-10-21T11:31:14.641Z,22.18
2022-10-21T11:33:52.625Z,22.16
2022-10-21T11:36:34.598Z,22.49
2022-10-21T11:39:37.471Z,22.83
2022-10-21T11:42:20.865Z,22.79
2022-10-21T11:45:16.851Z,23.17
2022-10-21T11:47:56.724Z,23.52
2022-10-21T11:50:33.902Z,23.72
2022-10-21T11:53:20.015Z,23.95
2022-10-21T11:56:05.480Z,23.99
2022-10-21T11:58:49.804Z,24.16
2022-10-21T12:01:37.738Z,24.35
2022-10-21T12:04:42.772Z,24.14
2022-10-21T12:07:30.495Z,23.71
2022-10-21T12:10:07.448Z,23.90
2022-10-21T12:12:42.161Z,23.80
2022-10-21T12:15:19.977Z,23.62
2022-10-21T12:17:51.003Z,23.15
2022-10-21T12:20:26.521Z,22.42
2022-10-21T12:23:01.600Z,21.88
2022-10-21T12:25:42.800Z,21.44
2022-10-21T12:28:25.540Z,21.19
2022-10-21T12:30:59.497Z,20.75
2022-10-21T12:33:38.990Z,20.41
2022-10-21T12:36:20.903Z,20.29
2022-10-21T12:38:52.658Z,20.47
2022-10-21T12:41:34.605Z,20.33
2022-10-21T12:44:26.578Z,20.22
2022-10-21T12:46:58.369Z,20.12
2022-10-21T12:49:32.807Z,19.99
2022-10-21T12:52:12.121Z,19.86
2022-10-21T12:54:52.499Z,19.94
2022-10-21T12:57:30.300Z,19.90
2022-10-21T13:00:51.651Z,19.81
2022-10-21T13:03:23.849Z,19.70
2022-10-21T13:06:07.318Z,19.63
2022-10-21T13:08:52.954Z,19.70
2022-10-21T13:11:40.598Z,19.55
2022-10-21T13:14:35.438Z,19.43
2022-10-21T13:17:45.887Z,19.40
2022-10-21T13:20:48.095Z,19.39
2022-10-21T13:23:42.372Z,19.37
2022-10-21T13:26:21.040Z,19.08
2022-10-21T13:29:06.495Z,19.07
2022-10-21T13:31:36.137Z,19.02
2022-10-21T13:34:26.074Z,19.10
2022-10-21T13:36:56.287Z,18.99
2022-10-21T13:39:31.288Z,18.94
2022-10-21T13:42:04.583Z,18.73
2022-10-21T13:44:38.385Z,18.57
2022-10-21T13:47:27.448Z,18.70
2022-10-21T13:50:03.979Z,18.68
2022-10-21T13:52:33.227Z,18.86
2022-10-21T13:55:05.797Z,18.83
2022-10-21T13:57:37.879Z,18.87
2022-10-21T14:00:10.983Z,18.79
2022-10-21T14:02:48.642Z,18.76
2022-10-21T14:05:39.852Z,18.65
2022-10-21T14:08:23.523Z,18.79
2022-10-21T14:10:54.647Z,18.85
2022-10-21T14:13:29.846Z,18.91
2022-10-21T14:16:00.175Z,18.80
2022-10-21T14:18:36.468Z,18.86
2022-10-21T14:21:09.917Z,18.75
2022-10-21T14:23:39.966Z,18.79
2022-10-21T14:26:10.633Z,18.91
2022-10-21T14:28:40.087Z,18.91
2022-10-21T14:31:12.653Z,18.65
2022-10-21T14:33:43.561Z,18.87
2022-10-21T14:36:19.792Z,18.81
2022-10-21T14:39:00.625Z,18.92
2022-10-21T14:41:35.551Z,19.17
2022-10-21T14:44:13.567Z,19.38
2022-10-21T14:46:45.833Z,19.51
2022-10-21T14:49:25.122Z,19.46
2022-10-21T14:52:02.965Z,19.38
2022-10-21T14:54:44.246Z,19.31
2022-10-21T14:57:39.837Z,19.22
2022-10-21T15:00:26.298Z,19.10
2022-10-21T15:03:00.306Z,19.33
2022-10-21T15:05:48.538Z,19.59
2022-10-21T15:08:32.384Z,19.94
2022-10-21T15:11:23.788Z,20.16
2022-10-21T15:14:06.670Z,20.43
2022-10-21T15:16:36.166Z,20.40
2022-10-21T15:19:09.892Z,20.39
2022-10-21T15:21:47.776Z,20.29
2022-10-21T15:24:24.838Z,20.19
2022-10-21T15:26:55.791Z,20.04
2022-10-21T15:29:29.496Z,19.55
2022-10-21T15:32:00.489Z,19.41
2022-10-21T15:34:30.492Z,19.18
2022-10-21T15:36:59.621Z,19.08
2022-10-21T15:39:30.552Z,18.92
2022-10-21T15:42:00.093Z,18.76
2022-10-21T15:44:31.271Z,18.76
2022-10-21T15:47:05.580Z,18.70
2022-10-21T15:49:38.019Z,18.59
2022-10-21T15:52:07.879Z,18.57
2022-10-21T15:54:38.515Z,18.54
2022-10-21T15:57:19.286Z,18.43
2022-10-21T15:59:49.116Z,18.39
2022-10-21T16:02:18.682Z,18.39
2022-10-21T16:04:47.831Z,18.39
2022-10-21T16:07:22.815Z,18.15
2022-10-21T16:09:53.387Z,18.20
2022-10-21T16:12:23.432Z,18.14
2022-10-21T16:14:52.612Z,18.05
2022-10-21T16:17:23.898Z,18.03
2022-10-21T16:19:53.135Z,17.99
2022-10-21T16:22:24.905Z,18.01
2022-10-21T16:24:55.536Z,17.86
2022-10-21T16:27:43.399Z,17.85
2022-10-21T16:30:21.376Z,17.72
2022-10-21T16:32:51.536Z,17.70
2022-10-21T16:35:22.636Z,17.65
2022-10-21T16:37:52.980Z,17.44
2022-10-21T16:40:26.430Z,17.47
2022-10-21T16:42:56.180Z,17.39
2022-10-21T16:45:31.122Z,17.39
2022-10-21T16:48:02.235Z,17.32
2022-10-21T16:50:39.806Z,17.27
2022-10-21T16:53:13.191Z,17.08
2022-10-21T16:55:44.165Z,17.20
2022-10-21T16:58:13.365Z,17.24
2022-10-21T17:00:43.201Z,17.15
2022-10-21T17:03:12.886Z,17.16
2022-10-21T17:05:42.138Z,17.12
2022-10-21T17:08:11.467Z,17.16
2022-10-21T17:10:42.298Z,17.12
2022-10-21T17:13:12.669Z,17.13
2022-10-21T17:15:41.976Z,17.07
2022-10-21T17:18:13.272Z,17.17
2022-10-21T17:20:45.036Z,17.12
2022-10-21T17:23:14.214Z,17.04
2022-10-21T17:25:44.780Z,17.08
2022-10-21T17:28:14.476Z,17.04
2022-10-21T17:30:43.759Z,17.01
2022-10-21T17:33:14.258Z,16.97
2022-10-21T17:35:43.871Z,16.97
2022-10-21T17:38:15.048Z,17.10
2022-10-21T17:40:46.004Z,17.02
2022-10-21T17:43:15.251Z,17.11
2022-10-21T17:45:44.412Z,17.12
2022-10-21T17:48:13.533Z,17.10
2022-10-21T17:50:42.826Z,17.09
2022-10-21T17:53:12.100Z,17.03
2022-10-21T17:55:41.377Z,17.15
2022-10-21T17:58:12.322Z,17.08
2022-10-21T18:00:44.547Z,17.11
2022-10-21T18:03:18.090Z,17.20
2022-10-21T18:05:47.738Z,17.13
2022-10-21T18:08:17.075Z,17.00
2022-10-21T18:10:55.332Z,16.96
2022-10-21T18:13:28.276Z,16.78
2022-10-21T18:16:03.757Z,16.82
2022-10-21T18:18:33.460Z,16.79
2022-10-21T18:21:03.963Z,16.78
2022-10-21T18:23:33.565Z,16.84
2022-10-21T18:26:05.034Z,16.84
2022-10-21T18:28:36.247Z,16.77
2022-10-21T18:31:07.228Z,16.67
2022-10-21T18:33:37.042Z,16.77
2022-10-21T18:36:11.564Z,16.78
2022-10-21T18:38:40.893Z,16.72
2022-10-21T18:41:20.249Z,16.76
2022-10-21T18:43:54.559Z,16.71
2022-10-21T18:46:24.901Z,16.59
2022-10-21T18:48:54.069Z,16.75
2022-10-21T18:51:23.999Z,16.75
2022-10-21T18:53:54.050Z,16.71
2022-10-21T18:56:26.808Z,16.66
2022-10-21T18:58:58.383Z,16.57
2022-10-21T19:01:28.413Z,16.62
2022-10-21T19:03:57.750Z,16.70
2022-10-21T19:06:40.943Z,16.57
2022-10-21T19:09:14.751Z,16.65
2022-10-21T19:11:44.363Z,16.57
2022-10-21T19:14:16.645Z,16.69
2022-10-21T19:16:48.413Z,16.70
2022-10-21T19:19:18.319Z,16.67
2022-10-21T19:21:47.622Z,16.57
2022-10-21T19:24:16.911Z,16.69
2022-10-21T19:26:46.959Z,16.66
2022-10-21T19:29:20.897Z,16.69
2022-10-21T19:31:50.442Z,16.72
2022-10-21T19:34:23.582Z,16.68
2022-10-21T19:36:52.797Z,16.70
2022-10-21T19:39:22.526Z,16.66
2022-10-21T19:41:51.794Z,16.66
2022-10-21T19:44:22.484Z,16.63
2022-10-21T19:46:52.576Z,16.65
2022-10-21T19:49:21.823Z,16.69
2022-10-21T19:51:51.034Z,16.67
2022-10-21T19:54:20.160Z,16.66
2022-10-21T19:56:49.364Z,16.65
2022-10-21T20:01:54.441Z,16.57
2022-10-21T20:04:24.922Z,16.57
2022-10-21T20:06:54.145Z,16.59
2022-10-21T20:09:23.623Z,16.57
2022-10-21T20:11:52.862Z,16.64
2022-10-21T20:14:22.206Z,16.62
2022-10-21T20:16:53.228Z,16.59
2022-10-21T20:19:22.605Z,16.63
2022-10-21T20:21:51.951Z,16.63
2022-10-21T20:24:21.399Z,16.59
2022-10-21T20:26:51.571Z,16.66
2022-10-21T20:29:20.805Z,16.65
2022-10-21T20:31:50.002Z,16.63
2022-10-21T20:34:20.633Z,16.79
2022-10-21T20:36:49.780Z,16.78
2022-10-21T20:39:19.294Z,16.70
2022-10-21T20:41:48.493Z,16.81
2022-10-21T20:44:18.316Z,16.76
2022-10-21T20:46:48.177Z,16.80
2022-10-21T20:49:17.589Z,16.80
2022-10-21T20:51:48.373Z,16.78
2022-10-21T20:54:22.873Z,16.80
2022-10-21T20:56:52.105Z,16.81
2022-10-21T20:59:21.500Z,16.71
2022-10-21T21:01:50.834Z,16.70
2022-10-21T21:04:23.799Z,16.73
2022-10-21T21:06:54.894Z,16.71
2022-10-21T21:12:15.687Z,16.68
2022-10-21T21:14:44.898Z,16.60
2022-10-21T21:17:14.149Z,16.59
2022-10-21T21:19:43.534Z,16.66
2022-10-21T21:22:14.268Z,16.48
2022-10-21T21:24:43.861Z,16.50
2022-10-21T21:27:13.196Z,16.63
2022-10-21T21:29:42.490Z,16.61
2022-10-21T21:32:11.701Z,16.65
2022-10-21T21:34:40.982Z,16.61
2022-10-21T21:37:10.257Z,16.58
2022-10-21T21:39:40.879Z,16.62
2022-10-21T21:42:10.277Z,16.66
2022-10-21T21:44:39.859Z,16.61
2022-10-21T21:47:09.208Z,16.59
2022-10-21T21:49:38.553Z,16.57
2022-10-21T21:52:07.986Z,16.60
2022-10-21T21:54:40.966Z,16.52
2022-10-21T21:59:59.767Z,16.47
2022-10-21T22:02:29.027Z,16.43
2022-10-21T22:04:58.299Z,16.50
2022-10-21T22:07:30.063Z,16.47
2022-10-21T22:10:00.714Z,16.43
2022-10-21T22:12:30.380Z,16.50
2022-10-21T22:14:59.902Z,16.47
2022-10-21T22:17:29.151Z,16.55
2022-10-21T22:19:59.025Z,16.42
2022-10-21T22:22:28.445Z,16.53
2022-10-21T22:24:59.133Z,16.56
2022-10-21T22:27:28.565Z,16.56
2022-10-21T22:29:57.680Z,16.59
2022-10-21T22:32:27.012Z,16.29
2022-10-21T22:34:56.246Z,16.60
2022-10-21T22:37:25.332Z,16.45
2022-10-21T22:39:54.573Z,16.61
2022-10-21T22:42:25.047Z,16.62
2022-10-21T22:44:54.261Z,16.56
2022-10-21T22:47:24.601Z,16.65
2022-10-21T22:49:54.412Z,16.61
2022-10-21T22:52:23.916Z,16.70
2022-10-21T22:54:53.054Z,16.70
2022-10-21T22:57:22.278Z,16.73
2022-10-21T22:59:53.624Z,16.76
2022-10-21T23:02:22.894Z,16.78
2022-10-21T23:04:52.779Z,16.81
2022-10-21T23:07:22.065Z,16.74
2022-10-21T23:09:51.721Z,16.85
2022-10-21T23:12:20.918Z,16.78
2022-10-21T23:14:50.179Z,16.75
2022-10-21T23:17:23.261Z,16.82
2022-10-21T23:19:52.507Z,16.81
2022-10-21T23:22:22.640Z,16.82
2022-10-21T23:24:54.484Z,16.74
2022-10-21T23:27:23.745Z,16.80
2022-10-21T23:29:52.930Z,16.75
2022-10-21T23:32:23.475Z,16.76
2022-10-21T23:34:52.643Z,16.67
2022-10-21T23:37:21.894Z,16.70
2022-10-21T23:39:51.047Z,16.65
2022-10-21T23:42:20.328Z,16.70
2022-10-21T23:44:49.571Z,16.71
2022-10-21T23:47:18.763Z,16.53
2022-10-21T23:49:49.310Z,16.69
2022-10-21T23:52:18.748Z,16.65
2022-10-21T23:54:47.959Z,16.69
2022-10-21T23:57:17.186Z,16.69
2022-10-21T23:59:46.302Z,16.70
